sensor_id;sensor_type;location;lat;lon;timestamp;pressure;altitude;pressure_sealevel;temperature;humidity
8523;BME280;4299;42.202;24.736;2023-03-18T00:01:40;100198.44;;;4.24;nan
8523;BME280;4299;42.202;24.736;2023-03-18T00:04:07;100192.31;;;4.25;nan
8523;BME280;4299;42.202;24.736;2023-03-18T00:06:35;100193.31;;;4.18;nan
8523;BME280;4299;42.202;24.736;2023-03-18T00:09:03;100183.91;;;4.08;nan
8523;BME280;4299;42.202;24.736;2023-03-18T00:11:31;100190.97;;;4.05;nan
8523;BME280;4299;42.202;24.736;2023-03-18T00:13:58;100190.16;;;4.01;nan
8523;BME280;4299;42.202;24.736;2023-03-18T00:16:26;100186.63;;;4.02;nan
8523;BME280;4299;42.202;24.736;2023-03-18T00:18:52;100183.94;;;4.07;nan
8523;BME280;4299;42.202;24.736;2023-03-18T00:21:19;100172.44;;;4.12;nan
8523;BME280;4299;42.202;24.736;2023-03-18T00:23:47;100175.84;;;4.17;nan
8523;BME280;4299;42.202;24.736;2023-03-18T00:26:15;100172.41;;;4.15;nan
8523;BME280;4299;42.202;24.736;2023-03-18T00:28:41;100167.03;;;4.21;nan
8523;BME280;4299;42.202;24.736;2023-03-18T00:31:10;100172.16;;;4.27;nan
8523;BME280;4299;42.202;24.736;2023-03-18T00:33:40;100167.09;;;4.18;nan
8523;BME280;4299;42.202;24.736;2023-03-18T00:36:08;100158.28;;;4.22;nan
8523;BME280;4299;42.202;24.736;2023-03-18T00:38:38;100151.22;;;4.24;nan
8523;BME280;4299;42.202;24.736;2023-03-18T00:41:06;100154.56;;;4.32;nan
8523;BME280;4299;42.202;24.736;2023-03-18T00:43:37;100150.19;;;4.31;nan
8523;BME280;4299;42.202;24.736;2023-03-18T00:46:11;100152.94;;;4.25;nan
8523;BME280;4299;42.202;24.736;2023-03-18T00:48:39;100151.94;;;4.31;nan
8523;BME280;4299;42.202;24.736;2023-03-18T00:51:06;100149.44;;;4.26;nan
8523;BME280;4299;42.202;24.736;2023-03-18T00:53:33;100145.88;;;4.30;nan
8523;BME280;4299;42.202;24.736;2023-03-18T00:55:59;100147.56;;;4.31;nan
8523;BME280;4299;42.202;24.736;2023-03-18T00:58:26;100148.41;;;4.34;nan
8523;BME280;4299;42.202;24.736;2023-03-18T01:00:53;100155.53;;;4.28;nan
8523;BME280;4299;42.202;24.736;2023-03-18T01:03:19;100144.06;;;4.32;nan
8523;BME280;4299;42.202;24.736;2023-03-18T01:05:51;100147.22;;;4.50;nan
8523;BME280;4299;42.202;24.736;2023-03-18T01:08:19;100147.06;;;4.56;nan
8523;BME280;4299;42.202;24.736;2023-03-18T01:10:46;100154.06;;;4.57;nan
8523;BME280;4299;42.202;24.736;2023-03-18T01:13:12;100155.59;;;4.67;nan
8523;BME280;4299;42.202;24.736;2023-03-18T01:15:40;100157.13;;;4.77;nan
8523;BME280;4299;42.202;24.736;2023-03-18T01:18:07;100161.34;;;4.83;nan
8523;BME280;4299;42.202;24.736;2023-03-18T01:20:36;100157.06;;;4.80;nan
8523;BME280;4299;42.202;24.736;2023-03-18T01:23:04;100151.72;;;4.83;nan
8523;BME280;4299;42.202;24.736;2023-03-18T01:25:32;100154.34;;;4.83;nan
8523;BME280;4299;42.202;24.736;2023-03-18T01:27:59;100139.56;;;4.79;nan
8523;BME280;4299;42.202;24.736;2023-03-18T01:30:25;100145.66;;;4.81;nan
8523;BME280;4299;42.202;24.736;2023-03-18T01:32:53;100145.53;;;4.86;nan
8523;BME280;4299;42.202;24.736;2023-03-18T01:35:20;100140.63;;;4.70;nan
8523;BME280;4299;42.202;24.736;2023-03-18T01:37:47;100137.66;;;4.46;nan
8523;BME280;4299;42.202;24.736;2023-03-18T01:40:16;100138.44;;;4.51;nan
8523;BME280;4299;42.202;24.736;2023-03-18T01:42:47;100134.84;;;4.55;nan
8523;BME280;4299;42.202;24.736;2023-03-18T01:45:20;100131.50;;;4.47;nan
8523;BME280;4299;42.202;24.736;2023-03-18T01:47:49;100131.63;;;4.41;nan
8523;BME280;4299;42.202;24.736;2023-03-18T01:50:18;100136.88;;;4.41;nan
8523;BME280;4299;42.202;24.736;2023-03-18T01:52:47;100131.63;;;4.41;nan
8523;BME280;4299;42.202;24.736;2023-03-18T01:55:19;100131.78;;;4.35;nan
8523;BME280;4299;42.202;24.736;2023-03-18T01:57:47;100128.31;;;4.32;nan
8523;BME280;4299;42.202;24.736;2023-03-18T02:00:15;100130.00;;;4.37;nan
8523;BME280;4299;42.202;24.736;2023-03-18T02:02:43;100133.31;;;4.45;nan
8523;BME280;4299;42.202;24.736;2023-03-18T02:05:13;100127.94;;;4.51;nan
8523;BME280;4299;42.202;24.736;2023-03-18T02:07:42;100118.94;;;4.61;nan
8523;BME280;4299;42.202;24.736;2023-03-18T02:10:12;100124.97;;;4.66;nan
8523;BME280;4299;42.202;24.736;2023-03-18T02:12:44;100123.28;;;4.63;nan
8523;BME280;4299;42.202;24.736;2023-03-18T02:15:15;100127.59;;;4.66;nan
8523;BME280;4299;42.202;24.736;2023-03-18T02:17:45;100126.75;;;4.65;nan
8523;BME280;4299;42.202;24.736;2023-03-18T02:20:23;100125.88;;;4.65;nan
8523;BME280;4299;42.202;24.736;2023-03-18T02:22:55;100131.19;;;4.62;nan
8523;BME280;4299;42.202;24.736;2023-03-18T02:25:33;100129.53;;;4.58;nan
8523;BME280;4299;42.202;24.736;2023-03-18T02:28:06;100126.22;;;4.50;nan
8523;BME280;4299;42.202;24.736;2023-03-18T02:30:36;100133.25;;;4.46;nan
8523;BME280;4299;42.202;24.736;2023-03-18T02:33:05;100134.09;;;4.48;nan
8523;BME280;4299;42.202;24.736;2023-03-18T02:35:34;100125.44;;;4.45;nan
8523;BME280;4299;42.202;24.736;2023-03-18T02:38:01;100124.41;;;4.52;nan
8523;BME280;4299;42.202;24.736;2023-03-18T02:40:31;100126.91;;;4.58;nan
8523;BME280;4299;42.202;24.736;2023-03-18T02:43:16;100132.91;;;4.63;nan
8523;BME280;4299;42.202;24.736;2023-03-18T02:45:49;100141.63;;;4.65;nan
8523;BME280;4299;42.202;24.736;2023-03-18T02:48:22;100132.72;;;4.72;nan
8523;BME280;4299;42.202;24.736;2023-03-18T02:50:51;100136.97;;;4.78;nan
8523;BME280;4299;42.202;24.736;2023-03-18T02:53:18;100137.72;;;4.83;nan
8523;BME280;4299;42.202;24.736;2023-03-18T02:55:45;100137.69;;;4.84;nan
8523;BME280;4299;42.202;24.736;2023-03-18T02:58:13;100136.81;;;4.84;nan
8523;BME280;4299;42.202;24.736;2023-03-18T03:00:40;100132.44;;;4.84;nan
8523;BME280;4299;42.202;24.736;2023-03-18T03:03:06;100141.16;;;4.86;nan
8523;BME280;4299;42.202;24.736;2023-03-18T03:05:34;100143.63;;;4.94;nan
8523;BME280;4299;42.202;24.736;2023-03-18T03:08:00;100145.16;;;5.02;nan
8523;BME280;4299;42.202;24.736;2023-03-18T03:10:28;100138.94;;;5.06;nan
8523;BME280;4299;42.202;24.736;2023-03-18T03:12:55;100137.34;;;4.99;nan
8523;BME280;4299;42.202;24.736;2023-03-18T03:15:23;100151.53;;;4.92;nan
8523;BME280;4299;42.202;24.736;2023-03-18T03:17:50;100144.63;;;4.88;nan
8523;BME280;4299;42.202;24.736;2023-03-18T03:20:18;100135.16;;;4.81;nan
8523;BME280;4299;42.202;24.736;2023-03-18T03:22:45;100148.28;;;4.81;nan
8523;BME280;4299;42.202;24.736;2023-03-18T03:25:12;100135.84;;;4.89;nan
8523;BME280;4299;42.202;24.736;2023-03-18T03:27:40;100143.75;;;4.88;nan
8523;BME280;4299;42.202;24.736;2023-03-18T03:30:09;100143.91;;;4.82;nan
8523;BME280;4299;42.202;24.736;2023-03-18T03:32:38;100144.81;;;4.79;nan
8523;BME280;4299;42.202;24.736;2023-03-18T03:35:06;100148.34;;;4.78;nan
8523;BME280;4299;42.202;24.736;2023-03-18T03:37:33;100142.09;;;4.82;nan
8523;BME280;4299;42.202;24.736;2023-03-18T03:40:00;100141.22;;;4.83;nan
8523;BME280;4299;42.202;24.736;2023-03-18T03:42:27;100148.28;;;4.81;nan
8523;BME280;4299;42.202;24.736;2023-03-18T03:44:53;100144.88;;;4.76;nan
8523;BME280;4299;42.202;24.736;2023-03-18T03:47:20;100144.88;;;4.76;nan
8523;BME280;4299;42.202;24.736;2023-03-18T03:49:48;100148.38;;;4.75;nan
8523;BME280;4299;42.202;24.736;2023-03-18T03:52:16;100148.38;;;4.75;nan
8523;BME280;4299;42.202;24.736;2023-03-18T03:54:44;100146.72;;;4.73;nan
8523;BME280;4299;42.202;24.736;2023-03-18T03:57:11;100144.06;;;4.74;nan
8523;BME280;4299;42.202;24.736;2023-03-18T03:59:38;100143.28;;;4.69;nan
8523;BME280;4299;42.202;24.736;2023-03-18T04:02:04;100145.88;;;4.70;nan
8523;BME280;4299;42.202;24.736;2023-03-18T04:04:31;100145.00;;;4.70;nan
8523;BME280;4299;42.202;24.736;2023-03-18T04:06:59;100141.53;;;4.68;nan
8523;BME280;4299;42.202;24.736;2023-03-18T04:09:27;100145.16;;;4.64;nan
8523;BME280;4299;42.202;24.736;2023-03-18T04:11:54;100148.75;;;4.60;nan
8523;BME280;4299;42.202;24.736;2023-03-18T04:14:21;100157.56;;;4.57;nan
8523;BME280;4299;42.202;24.736;2023-03-18T04:16:48;100146.16;;;4.58;nan
8523;BME280;4299;42.202;24.736;2023-03-18T04:19:14;100151.31;;;4.61;nan
8523;BME280;4299;42.202;24.736;2023-03-18T04:21:42;100141.69;;;4.62;nan
8523;BME280;4299;42.202;24.736;2023-03-18T04:24:10;100144.22;;;4.66;nan
8523;BME280;4299;42.202;24.736;2023-03-18T04:26:37;100151.22;;;4.67;nan
8523;BME280;4299;42.202;24.736;2023-03-18T04:29:04;100153.78;;;4.69;nan
8523;BME280;4299;42.202;24.736;2023-03-18T04:31:31;100151.28;;;4.63;nan
8523;BME280;4299;42.202;24.736;2023-03-18T04:33:58;100155.69;;;4.61;nan
8523;BME280;4299;42.202;24.736;2023-03-18T04:36:25;100158.25;;;4.65;nan
8523;BME280;4299;42.202;24.736;2023-03-18T04:38:52;100161.47;;;4.78;nan
8523;BME280;4299;42.202;24.736;2023-03-18T04:41:20;100163.81;;;4.90;nan
8523;BME280;4299;42.202;24.736;2023-03-18T04:43:47;100155.00;;;4.94;nan
8523;BME280;4299;42.202;24.736;2023-03-18T04:46:15;100159.28;;;4.97;nan
8523;BME280;4299;42.202;24.736;2023-03-18T04:48:41;100164.66;;;4.92;nan
8523;BME280;4299;42.202;24.736;2023-03-18T04:51:09;100167.22;;;4.95;nan
8523;BME280;4299;42.202;24.736;2023-03-18T04:53:37;100168.88;;;4.99;nan
8523;BME280;4299;42.202;24.736;2023-03-18T04:56:04;100163.56;;;5.02;nan
8523;BME280;4299;42.202;24.736;2023-03-18T04:58:34;100165.34;;;5.00;nan
8523;BME280;4299;42.202;24.736;2023-03-18T05:01:01;100165.50;;;4.94;nan
8523;BME280;4299;42.202;24.736;2023-03-18T05:03:31;100164.53;;;4.97;nan
8523;BME280;4299;42.202;24.736;2023-03-18T05:05:58;100163.72;;;4.95;nan
8523;BME280;4299;42.202;24.736;2023-03-18T05:08:25;100160.28;;;4.93;nan
8523;BME280;4299;42.202;24.736;2023-03-18T05:10:52;100155.03;;;4.91;nan
8523;BME280;4299;42.202;24.736;2023-03-18T05:13:18;100164.78;;;4.88;nan
8523;BME280;4299;42.202;24.736;2023-03-18T05:15:46;100156.88;;;4.89;nan
8523;BME280;4299;42.202;24.736;2023-03-18T05:18:13;100170.75;;;4.94;nan
8523;BME280;4299;42.202;24.736;2023-03-18T05:20:41;100174.22;;;4.96;nan
8523;BME280;4299;42.202;24.736;2023-03-18T05:23:08;100172.41;;;4.98;nan
8523;BME280;4299;42.202;24.736;2023-03-18T05:25:35;100159.94;;;5.06;nan
8523;BME280;4299;42.202;24.736;2023-03-18T05:28:02;100169.34;;;5.18;nan
8523;BME280;4299;42.202;24.736;2023-03-18T05:30:29;100178.75;;;5.27;nan
8523;BME280;4299;42.202;24.736;2023-03-18T05:32:57;100180.41;;;5.31;nan
8523;BME280;4299;42.202;24.736;2023-03-18T05:35:24;100176.03;;;5.31;nan
8523;BME280;4299;42.202;24.736;2023-03-18T05:37:50;100170.66;;;5.36;nan
8523;BME280;4299;42.202;24.736;2023-03-18T05:40:17;100176.66;;;5.41;nan
8523;BME280;4299;42.202;24.736;2023-03-18T05:42:44;100178.31;;;5.45;nan
8523;BME280;4299;42.202;24.736;2023-03-18T05:45:10;100185.09;;;5.55;nan
8523;BME280;4299;42.202;24.736;2023-03-18T05:47:37;100192.06;;;5.56;nan
8523;BME280;4299;42.202;24.736;2023-03-18T05:50:06;100191.16;;;5.57;nan
8523;BME280;4299;42.202;24.736;2023-03-18T05:52:32;100194.09;;;5.45;nan
8523;BME280;4299;42.202;24.736;2023-03-18T05:55:00;100195.81;;;5.46;nan
8523;BME280;4299;42.202;24.736;2023-03-18T05:57:27;100195.31;;;5.30;nan
8523;BME280;4299;42.202;24.736;2023-03-18T05:59:54;100195.16;;;5.36;nan
8523;BME280;4299;42.202;24.736;2023-03-18T06:02:20;100197.22;;;5.24;nan
8523;BME280;4299;42.202;24.736;2023-03-18T06:04:48;100189.88;;;5.38;nan
8523;BME280;4299;42.202;24.736;2023-03-18T06:07:16;100182.59;;;5.49;nan
8523;BME280;4299;42.202;24.736;2023-03-18T06:09:42;100188.53;;;5.57;nan
8523;BME280;4299;42.202;24.736;2023-03-18T06:12:09;100196.88;;;5.74;nan
8523;BME280;4299;42.202;24.736;2023-03-18T06:14:36;100190.34;;;5.91;nan
8523;BME280;4299;42.202;24.736;2023-03-18T06:17:04;100192.41;;;6.12;nan
8523;BME280;4299;42.202;24.736;2023-03-18T06:19:30;100190.44;;;6.20;nan
8523;BME280;4299;42.202;24.736;2023-03-18T06:21:58;100185.09;;;6.23;nan
8523;BME280;4299;42.202;24.736;2023-03-18T06:24:26;100182.94;;;6.37;nan
8523;BME280;4299;42.202;24.736;2023-03-18T06:26:53;100181.97;;;6.41;nan
8523;BME280;4299;42.202;24.736;2023-03-18T06:29:19;100184.22;;;6.53;nan
8523;BME280;4299;42.202;24.736;2023-03-18T06:31:46;100184.41;;;6.47;nan
8523;BME280;4299;42.202;24.736;2023-03-18T06:34:14;100185.88;;;6.57;nan
8523;BME280;4299;42.202;24.736;2023-03-18T06:36:40;100173.97;;;6.74;nan
8523;BME280;4299;42.202;24.736;2023-03-18T06:39:07;100167.41;;;6.87;nan
8523;BME280;4299;42.202;24.736;2023-03-18T06:41:36;100180.47;;;6.91;nan
8523;BME280;4299;42.202;24.736;2023-03-18T06:44:03;100176.63;;;7.01;nan
8523;BME280;4299;42.202;24.736;2023-03-18T06:46:30;100167.94;;;7.27;nan
8523;BME280;4299;42.202;24.736;2023-03-18T06:48:57;100170.50;;;7.57;nan
8523;BME280;4299;42.202;24.736;2023-03-18T06:51:24;100170.59;;;7.80;nan
8523;BME280;4299;42.202;24.736;2023-03-18T06:53:51;100170.78;;;8.00;nan
8523;BME280;4299;42.202;24.736;2023-03-18T06:56:19;100169.16;;;8.21;nan
8523;BME280;4299;42.202;24.736;2023-03-18T06:58:47;100174.16;;;8.29;nan
8523;BME280;4299;42.202;24.736;2023-03-18T07:01:14;100171.75;;;8.23;nan
8523;BME280;4299;42.202;24.736;2023-03-18T07:03:41;100171.63;;;8.26;nan
8523;BME280;4299;42.202;24.736;2023-03-18T07:06:09;100174.22;;;8.27;nan
8523;BME280;4299;42.202;24.736;2023-03-18T07:08:35;100177.03;;;8.23;nan
8523;BME280;4299;42.202;24.736;2023-03-18T07:11:03;100177.53;;;8.34;nan
8523;BME280;4299;42.202;24.736;2023-03-18T07:13:31;100173.91;;;8.61;nan
8523;BME280;4299;42.202;24.736;2023-03-18T07:16:00;100169.25;;;8.91;nan
8523;BME280;4299;42.202;24.736;2023-03-18T07:18:26;100166.38;;;9.19;nan
8523;BME280;4299;42.202;24.736;2023-03-18T07:20:53;100172.91;;;9.32;nan
8523;BME280;4299;42.202;24.736;2023-03-18T07:23:20;100174.88;;;9.27;nan
8523;BME280;4299;42.202;24.736;2023-03-18T07:25:47;100160.94;;;9.22;nan
8523;BME280;4299;42.202;24.736;2023-03-18T07:28:13;100158.84;;;9.30;nan
8523;BME280;4299;42.202;24.736;2023-03-18T07:30:40;100170.91;;;9.37;nan
8523;BME280;4299;42.202;24.736;2023-03-18T07:33:08;100162.31;;;9.32;nan
8523;BME280;4299;42.202;24.736;2023-03-18T07:35:35;100170.19;;;9.55;nan
8523;BME280;4299;42.202;24.736;2023-03-18T07:38:02;100166.63;;;9.56;nan
8523;BME280;4299;42.202;24.736;2023-03-18T07:40:29;100175.06;;;9.64;nan
8523;BME280;4299;42.202;24.736;2023-03-18T07:42:55;100167.56;;;9.75;nan
8523;BME280;4299;42.202;24.736;2023-03-18T07:45:22;100175.78;;;9.90;nan
8523;BME280;4299;42.202;24.736;2023-03-18T07:47:49;100171.06;;;10.18;nan
8523;BME280;4299;42.202;24.736;2023-03-18T07:50:18;100178.66;;;10.46;nan
8523;BME280;4299;42.202;24.736;2023-03-18T07:52:45;100181.19;;;10.68;nan
8523;BME280;4299;42.202;24.736;2023-03-18T07:55:12;100182.09;;;10.87;nan
8523;BME280;4299;42.202;24.736;2023-03-18T07:57:40;100182.22;;;11.21;nan
8523;BME280;4299;42.202;24.736;2023-03-18T08:00:10;100184.66;;;11.07;nan
8523;BME280;4299;42.202;24.736;2023-03-18T08:02:37;100187.19;;;11.10;nan
8523;BME280;4299;42.202;24.736;2023-03-18T08:05:04;100197.13;;;11.05;nan
8523;BME280;4299;42.202;24.736;2023-03-18T08:07:33;100203.03;;;10.93;nan
8523;BME280;4299;42.202;24.736;2023-03-18T08:10:00;100203.16;;;10.90;nan
8523;BME280;4299;42.202;24.736;2023-03-18T08:12:27;100200.16;;;10.79;nan
8523;BME280;4299;42.202;24.736;2023-03-18T08:14:54;100202.28;;;10.71;nan
8523;BME280;4299;42.202;24.736;2023-03-18T08:17:21;100197.31;;;10.63;nan
8523;BME280;4299;42.202;24.736;2023-03-18T08:19:47;100201.47;;;10.30;nan
8523;BME280;4299;42.202;24.736;2023-03-18T08:22:14;100204.03;;;10.31;nan
8523;BME280;4299;42.202;24.736;2023-03-18T08:24:42;100198.72;;;10.31;nan
8523;BME280;4299;42.202;24.736;2023-03-18T08:27:10;100199.25;;;10.39;nan
8523;BME280;4299;42.202;24.736;2023-03-18T08:29:36;100192.25;;;10.59;nan
8523;BME280;4299;42.202;24.736;2023-03-18T08:32:04;100197.53;;;10.59;nan
8523;BME280;4299;42.202;24.736;2023-03-18T08:34:30;100199.97;;;10.63;nan
8523;BME280;4299;42.202;24.736;2023-03-18T08:36:57;100190.09;;;11.04;nan
8523;BME280;4299;42.202;24.736;2023-03-18T08:39:24;100181.19;;;11.43;nan
8523;BME280;4299;42.202;24.736;2023-03-18T08:41:52;100186.44;;;11.80;nan
8523;BME280;4299;42.202;24.736;2023-03-18T08:44:19;100198.94;;;11.78;nan
8523;BME280;4299;42.202;24.736;2023-03-18T08:46:46;100196.34;;;11.77;nan
8523;BME280;4299;42.202;24.736;2023-03-18T08:49:12;100204.09;;;11.81;nan
8523;BME280;4299;42.202;24.736;2023-03-18T08:51:39;100208.00;;;11.55;nan
8523;BME280;4299;42.202;24.736;2023-03-18T08:54:06;100200.03;;;11.91;nan
8523;BME280;4299;42.202;24.736;2023-03-18T08:56:33;100202.56;;;12.12;nan
8523;BME280;4299;42.202;24.736;2023-03-18T08:59:01;100211.16;;;12.17;nan
8523;BME280;4299;42.202;24.736;2023-03-18T09:01:28;100213.50;;;12.05;nan
8523;BME280;4299;42.202;24.736;2023-03-18T09:03:54;100208.91;;;11.73;nan
8523;BME280;4299;42.202;24.736;2023-03-18T09:06:23;100210.88;;;11.51;nan
8523;BME280;4299;42.202;24.736;2023-03-18T09:08:50;100217.22;;;11.29;nan
8523;BME280;4299;42.202;24.736;2023-03-18T09:11:16;100216.06;;;11.35;nan
8523;BME280;4299;42.202;24.736;2023-03-18T09:13:43;100211.81;;;11.50;nan
8523;BME280;4299;42.202;24.736;2023-03-18T09:16:11;100211.34;;;11.78;nan
8523;BME280;4299;42.202;24.736;2023-03-18T09:18:38;100214.53;;;11.67;nan
8523;BME280;4299;42.202;24.736;2023-03-18T09:21:05;100213.13;;;11.96;nan
8523;BME280;4299;42.202;24.736;2023-03-18T09:23:31;100213.56;;;12.21;nan
8523;BME280;4299;42.202;24.736;2023-03-18T09:25:59;100215.03;;;12.61;nan
8523;BME280;4299;42.202;24.736;2023-03-18T09:28:26;100216.47;;;13.17;nan
8523;BME280;4299;42.202;24.736;2023-03-18T09:30:53;100228.34;;;13.58;nan
8523;BME280;4299;42.202;24.736;2023-03-18T09:33:23;100227.78;;;13.68;nan
8523;BME280;4299;42.202;24.736;2023-03-18T09:35:49;100220.25;;;13.60;nan
8523;BME280;4299;42.202;24.736;2023-03-18T09:38:18;100226.44;;;13.60;nan
8523;BME280;4299;42.202;24.736;2023-03-18T09:41:01;100226.97;;;13.51;nan
8523;BME280;4299;42.202;24.736;2023-03-18T09:43:39;100222.66;;;13.64;nan
8523;BME280;4299;42.202;24.736;2023-03-18T09:46:16;100232.63;;;13.61;nan
8523;BME280;4299;42.202;24.736;2023-03-18T09:49:07;100241.03;;;13.38;nan
8523;BME280;4299;42.202;24.736;2023-03-18T09:51:44;100236.22;;;13.13;nan
8523;BME280;4299;42.202;24.736;2023-03-18T09:54:17;100241.59;;;12.78;nan
8523;BME280;4299;42.202;24.736;2023-03-18T09:56:49;100237.72;;;12.51;nan
8523;BME280;4299;42.202;24.736;2023-03-18T09:59:21;100236.50;;;12.24;nan
8523;BME280;4299;42.202;24.736;2023-03-18T10:01:52;100240.41;;;12.34;nan
8523;BME280;4299;42.202;24.736;2023-03-18T10:04:23;100237.56;;;12.54;nan
8523;BME280;4299;42.202;24.736;2023-03-18T10:06:56;100245.50;;;12.71;nan
8523;BME280;4299;42.202;24.736;2023-03-18T10:09:27;100243.16;;;12.82;nan
8523;BME280;4299;42.202;24.736;2023-03-18T10:12:00;100242.28;;;12.82;nan
8523;BME280;4299;42.202;24.736;2023-03-18T10:14:36;100251.94;;;12.84;nan
8523;BME280;4299;42.202;24.736;2023-03-18T10:17:13;100249.38;;;12.99;nan
8523;BME280;4299;42.202;24.736;2023-03-18T10:19:46;100249.09;;;12.87;nan
8523;BME280;4299;42.202;24.736;2023-03-18T10:25:25;100256.69;;;13.11;nan
8523;BME280;4299;42.202;24.736;2023-03-18T10:30:54;100252.03;;;13.47;nan
8523;BME280;4299;42.202;24.736;2023-03-18T10:33:33;100252.56;;;13.70;nan
8523;BME280;4299;42.202;24.736;2023-03-18T10:36:08;100250.84;;;13.69;nan
8523;BME280;4299;42.202;24.736;2023-03-18T10:38:40;100258.03;;;13.82;nan
8523;BME280;4299;42.202;24.736;2023-03-18T10:41:21;100253.91;;;13.92;nan
8523;BME280;4299;42.202;24.736;2023-03-18T10:43:49;100261.25;;;13.57;nan
8523;BME280;4299;42.202;24.736;2023-03-18T10:46:18;100257.63;;;13.27;nan
8523;BME280;4299;42.202;24.736;2023-03-18T10:48:48;100258.56;;;13.26;nan
8523;BME280;4299;42.202;24.736;2023-03-18T10:51:23;100250.31;;;13.31;nan
8523;BME280;4299;42.202;24.736;2023-03-18T10:53:56;100257.88;;;13.38;nan
8523;BME280;4299;42.202;24.736;2023-03-18T10:56:26;100256.88;;;13.56;nan
8523;BME280;4299;42.202;24.736;2023-03-18T10:58:53;100247.88;;;13.89;nan
8523;BME280;4299;42.202;24.736;2023-03-18T11:01:22;100249.09;;;13.99;nan
8523;BME280;4299;42.202;24.736;2023-03-18T11:03:51;100254.44;;;13.68;nan
8523;BME280;4299;42.202;24.736;2023-03-18T11:06:23;100248.94;;;13.23;nan
8523;BME280;4299;42.202;24.736;2023-03-18T11:09:00;100244.22;;;12.96;nan
8523;BME280;4299;42.202;24.736;2023-03-18T11:11:32;100248.47;;;12.82;nan
8523;BME280;4299;42.202;24.736;2023-03-18T11:14:00;100241.59;;;12.78;nan
8523;BME280;4299;42.202;24.736;2023-03-18T11:16:38;100246.72;;;12.99;nan
8523;BME280;4299;42.202;24.736;2023-03-18T11:19:25;100245.94;;;12.97;nan
8523;BME280;4299;42.202;24.736;2023-03-18T11:22:02;100242.22;;;13.16;nan
8523;BME280;4299;42.202;24.736;2023-03-18T11:24:30;100247.56;;;13.32;nan
8523;BME280;4299;42.202;24.736;2023-03-18T11:27:24;100239.06;;;13.08;nan
8523;BME280;4299;42.202;24.736;2023-03-18T11:29:55;100238.16;;;12.76;nan
8523;BME280;4299;42.202;24.736;2023-03-18T11:32:23;100237.97;;;12.79;nan
8523;BME280;4299;42.202;24.736;2023-03-18T11:34:53;100234.84;;;12.88;nan
8523;BME280;4299;42.202;24.736;2023-03-18T11:37:26;100235.44;;;12.94;nan
8523;BME280;4299;42.202;24.736;2023-03-18T11:40:05;100237.63;;;13.51;nan
8523;BME280;4299;42.202;24.736;2023-03-18T11:42:33;100237.34;;;13.72;nan
8523;BME280;4299;42.202;24.736;2023-03-18T11:45:01;100236.41;;;13.73;nan
8523;BME280;4299;42.202;24.736;2023-03-18T11:47:34;100235.16;;;13.94;nan
8523;BME280;4299;42.202;24.736;2023-03-18T11:50:04;100236.13;;;14.23;nan
8523;BME280;4299;42.202;24.736;2023-03-18T11:52:37;100233.66;;;14.50;nan
8523;BME280;4299;42.202;24.736;2023-03-18T11:55:17;100229.28;;;14.63;nan
8523;BME280;4299;42.202;24.736;2023-03-18T11:57:59;100221.59;;;14.87;nan
8523;BME280;4299;42.202;24.736;2023-03-18T12:00:35;100221.28;;;15.05;nan
8523;BME280;4299;42.202;24.736;2023-03-18T12:06:32;100223.56;;;15.26;nan
8523;BME280;4299;42.202;24.736;2023-03-18T12:09:07;100219.00;;;15.13;nan
8523;BME280;4299;42.202;24.736;2023-03-18T12:11:46;100216.31;;;14.99;nan
8523;BME280;4299;42.202;24.736;2023-03-18T12:14:26;100202.72;;;14.75;nan
8523;BME280;4299;42.202;24.736;2023-03-18T12:17:01;100194.13;;;14.70;nan
8523;BME280;4299;42.202;24.736;2023-03-18T12:19:58;100192.69;;;14.93;nan
8523;BME280;4299;42.202;24.736;2023-03-18T12:22:52;100192.69;;;15.07;nan
8523;BME280;4299;42.202;24.736;2023-03-18T12:25:39;100205.09;;;14.80;nan
8523;BME280;4299;42.202;24.736;2023-03-18T12:28:16;100198.34;;;14.74;nan
8523;BME280;4299;42.202;24.736;2023-03-18T12:30:58;100209.84;;;14.61;nan
8523;BME280;4299;42.202;24.736;2023-03-18T12:33:37;100194.31;;;14.82;nan
8523;BME280;4299;42.202;24.736;2023-03-18T12:36:16;100188.50;;;14.89;nan
8523;BME280;4299;42.202;24.736;2023-03-18T12:39:20;100201.56;;;14.94;nan
8523;BME280;4299;42.202;24.736;2023-03-18T12:41:59;100194.97;;;14.57;nan
8523;BME280;4299;42.202;24.736;2023-03-18T12:44:49;100190.66;;;14.40;nan
8523;BME280;4299;42.202;24.736;2023-03-18T12:47:22;100185.56;;;14.21;nan
8523;BME280;4299;42.202;24.736;2023-03-18T12:49:55;100182.19;;;14.18;nan
8523;BME280;4299;42.202;24.736;2023-03-18T12:52:28;100176.56;;;14.08;nan
8523;BME280;4299;42.202;24.736;2023-03-18T12:55:00;100175.34;;;13.84;nan
8523;BME280;4299;42.202;24.736;2023-03-18T12:57:40;100164.47;;;13.73;nan
8523;BME280;4299;42.202;24.736;2023-03-18T13:00:17;100160.03;;;13.57;nan
8523;BME280;4299;42.202;24.736;2023-03-18T13:02:53;100169.84;;;13.41;nan
8523;BME280;4299;42.202;24.736;2023-03-18T13:05:33;100152.75;;;13.14;nan
8523;BME280;4299;42.202;24.736;2023-03-18T13:08:21;100159.06;;;12.96;nan
8523;BME280;4299;42.202;24.736;2023-03-18T13:10:57;100151.09;;;12.47;nan
8523;BME280;4299;42.202;24.736;2023-03-18T13:13:32;100152.69;;;12.17;nan
8523;BME280;4299;42.202;24.736;2023-03-18T13:16:03;100139.25;;;12.02;nan
8523;BME280;4299;42.202;24.736;2023-03-18T13:18:37;100154.13;;;11.89;nan
8523;BME280;4299;42.202;24.736;2023-03-18T13:21:06;100148.81;;;11.89;nan
8523;BME280;4299;42.202;24.736;2023-03-18T13:23:43;100150.66;;;11.87;nan
8523;BME280;4299;42.202;24.736;2023-03-18T13:26:20;100144.09;;;11.77;nan
8523;BME280;4299;42.202;24.736;2023-03-18T13:29:02;100147.72;;;11.76;nan
8523;BME280;4299;42.202;24.736;2023-03-18T13:31:45;100146.41;;;11.66;nan
8523;BME280;4299;42.202;24.736;2023-03-18T13:34:39;100144.81;;;11.62;nan
8523;BME280;4299;42.202;24.736;2023-03-18T13:37:28;100130.38;;;11.50;nan
8523;BME280;4299;42.202;24.736;2023-03-18T13:40:44;100142.16;;;11.45;nan
8523;BME280;4299;42.202;24.736;2023-03-18T13:43:18;100141.38;;;11.43;nan
8523;BME280;4299;42.202;24.736;2023-03-18T13:45:49;100139.72;;;11.40;nan
8523;BME280;4299;42.202;24.736;2023-03-18T13:48:20;100130.44;;;11.31;nan
8523;BME280;4299;42.202;24.736;2023-03-18T13:50:52;100134.31;;;11.24;nan
8523;BME280;4299;42.202;24.736;2023-03-18T13:53:24;100131.84;;;11.39;nan